createdAt,value
2022-08-29T00:00:20.269Z,101491.28
2022-08-29T00:03:08.459Z,101491.31
2022-08-29T00:05:56.638Z,101483.31
2022-08-29T00:08:44.833Z,101478.06
2022-08-29T00:11:32.132Z,101474.47
2022-08-29T00:14:23.239Z,101473.66
2022-08-29T00:17:10.981Z,101477.63
2022-08-29T00:19:58.231Z,101471.53
2022-08-29T00:22:45.568Z,101482.03
2022-08-29T00:25:32.929Z,101469.38
2022-08-29T00:28:20.752Z,101483.19
2022-08-29T00:31:08.148Z,101485.28
2022-08-29T00:33:57.526Z,101477.69
2022-08-29T00:36:46.172Z,101476.00
2022-08-29T00:39:36.621Z,101475.16
2022-08-29T00:42:24.041Z,101472.81
2022-08-29T00:45:13.094Z,101473.41
2022-08-29T00:48:05.146Z,101471.31
2022-08-29T00:50:56.494Z,101479.06
2022-08-29T00:53:47.987Z,101479.31
2022-08-29T00:56:38.029Z,101469.34
2022-08-29T00:59:31.713Z,101477.84
2022-08-29T01:02:19.305Z,101470.94
2022-08-29T01:05:08.674Z,101472.44
2022-08-29T01:07:56.278Z,101471.38
2022-08-29T01:11:02.800Z,101475.53
2022-08-29T01:13:51.629Z,101482.25
2022-08-29T01:16:39.453Z,101478.19
2022-08-29T01:19:52.118Z,101493.16
2022-08-29T01:23:00.892Z,101498.81
2022-08-29T01:25:51.125Z,101494.06
2022-08-29T01:28:42.923Z,101496.88
2022-08-29T01:31:55.800Z,101493.41
2022-08-29T01:34:45.537Z,101502.28
2022-08-29T01:37:35.590Z,101467.50
2022-08-29T01:40:28.618Z,101502.06
2022-08-29T01:43:15.924Z,101501.28
2022-08-29T01:46:03.663Z,101500.41
2022-08-29T01:48:51.188Z,101495.09
2022-08-29T01:51:39.423Z,101497.97
2022-08-29T01:54:27.076Z,101502.69
2022-08-29T01:57:16.104Z,101495.84
2022-08-29T02:00:05.798Z,101475.81
2022-08-29T02:02:53.434Z,101508.44
2022-08-29T02:05:40.710Z,101506.50
2022-08-29T02:08:28.757Z,101507.31
2022-08-29T02:11:17.262Z,101503.81
2022-08-29T02:14:04.632Z,101504.38
2022-08-29T02:16:51.954Z,101497.72
2022-08-29T02:19:41.512Z,101499.03
2022-08-29T02:22:28.596Z,101503.81
2022-08-29T02:25:37.486Z,101506.13
2022-08-29T02:28:24.801Z,101501.75
2022-08-29T02:31:12.302Z,101494.94
2022-08-29T02:33:59.702Z,101499.25
2022-08-29T02:36:49.082Z,101501.66
2022-08-29T02:39:36.669Z,101498.31
2022-08-29T02:42:23.968Z,101500.25
2022-08-29T02:45:11.821Z,101494.53
2022-08-29T02:48:00.541Z,101493.84
2022-08-29T02:50:50.563Z,101496.78
2022-08-29T02:53:37.813Z,101500.41
2022-08-29T02:56:25.808Z,101494.25
2022-08-29T02:59:14.158Z,101495.31
2022-08-29T03:02:02.353Z,101499.22
2022-08-29T03:04:49.741Z,101486.66
2022-08-29T03:07:37.072Z,101486.19
2022-08-29T03:10:25.324Z,101489.78
2022-08-29T03:13:13.213Z,101480.06
2022-08-29T03:16:02.261Z,101476.03
2022-08-29T03:18:49.952Z,101469.78
2022-08-29T03:21:37.208Z,101475.16
2022-08-29T03:24:26.864Z,101476.16
2022-08-29T03:27:14.481Z,101478.28
2022-08-29T03:30:02.178Z,101476.84
2022-08-29T03:32:49.468Z,101474.88
2022-08-29T03:35:36.800Z,101470.75
2022-08-29T03:38:24.185Z,101477.94
2022-08-29T03:41:12.629Z,101465.09
2022-08-29T03:44:00.152Z,101464.00
2022-08-29T03:46:47.537Z,101468.34
2022-08-29T03:49:35.372Z,101484.00
2022-08-29T03:52:22.653Z,101485.72
2022-08-29T03:55:12.428Z,101474.75
2022-08-29T03:57:59.740Z,101472.50
2022-08-29T04:00:47.030Z,101465.88
2022-08-29T04:03:34.308Z,101465.31
2022-08-29T04:06:23.496Z,101467.38
2022-08-29T04:09:10.741Z,101461.41
2022-08-29T04:11:58.664Z,101466.88
2022-08-29T04:14:45.933Z,101467.06
2022-08-29T04:17:34.149Z,101462.91
2022-08-29T04:20:25.608Z,101474.72
2022-08-29T04:23:14.465Z,101481.44
2022-08-29T04:26:19.187Z,101487.09
2022-08-29T04:29:11.890Z,101484.31
2022-08-29T04:31:59.253Z,101487.75
2022-08-29T04:34:47.157Z,101479.84
2022-08-29T04:37:34.941Z,101485.94
2022-08-29T04:40:23.245Z,101493.34
2022-08-29T04:43:10.865Z,101496.72
2022-08-29T04:45:58.444Z,101505.41
2022-08-29T04:48:45.749Z,101507.31
2022-08-29T04:51:35.437Z,101498.47
2022-08-29T04:54:23.180Z,101500.72
2022-08-29T04:57:10.468Z,101503.53
2022-08-29T04:59:59.115Z,101502.50
2022-08-29T05:02:47.966Z,101492.31
2022-08-29T05:05:35.300Z,101500.09
2022-08-29T05:08:23.188Z,101500.22
2022-08-29T05:11:14.788Z,101493.97
2022-08-29T05:14:10.309Z,101497.78
2022-08-29T05:16:57.552Z,101503.22
2022-08-29T05:19:45.141Z,101507.88
2022-08-29T05:22:33.253Z,101509.50
2022-08-29T05:25:20.657Z,101513.53
2022-08-29T05:28:11.131Z,101499.06
2022-08-29T05:30:59.949Z,101521.22
2022-08-29T05:33:47.231Z,101516.94
2022-08-29T05:36:34.617Z,101517.00
2022-08-29T05:39:21.897Z,101533.34
2022-08-29T05:42:11.751Z,101528.94
2022-08-29T05:44:59.085Z,101528.16
2022-08-29T05:47:46.381Z,101532.16
2022-08-29T05:50:44.244Z,101535.69
2022-08-29T05:53:31.572Z,101533.00
2022-08-29T05:56:23.445Z,101529.41
2022-08-29T05:59:12.553Z,101529.34
2022-08-29T06:02:01.484Z,101527.50
2022-08-29T06:04:48.881Z,101529.75
2022-08-29T06:07:36.265Z,101532.53
2022-08-29T06:10:23.532Z,101533.03
2022-08-29T06:13:11.861Z,101534.59
2022-08-29T06:15:59.187Z,101545.19
2022-08-29T06:18:47.193Z,101542.09
2022-08-29T06:21:34.490Z,101545.66
2022-08-29T06:24:21.739Z,101545.47
2022-08-29T06:27:09.033Z,101537.34
2022-08-29T06:30:00.118Z,101546.00
2022-08-29T06:32:49.080Z,101544.56
2022-08-29T06:35:36.536Z,101538.91
2022-08-29T06:38:23.805Z,101543.69
2022-08-29T06:41:14.336Z,101547.16
2022-08-29T06:44:02.412Z,101556.19
2022-08-29T06:46:49.893Z,101557.47
2022-08-29T06:49:37.194Z,101555.41
2022-08-29T06:52:24.477Z,101558.38
2022-08-29T06:55:12.841Z,101561.25
2022-08-29T06:58:00.152Z,101563.38
2022-08-29T07:00:49.869Z,101559.66
2022-08-29T07:03:37.509Z,101564.91
2022-08-29T07:06:25.749Z,101570.81
2022-08-29T07:09:13.573Z,101563.69
2022-08-29T07:12:00.884Z,101572.53
2022-08-29T07:14:48.124Z,101575.22
2022-08-29T07:17:40.347Z,101572.28
2022-08-29T07:20:27.614Z,101566.72
2022-08-29T07:23:15.342Z,101562.22
2022-08-29T07:26:30.557Z,101577.03
2022-08-29T07:29:20.012Z,101571.97
2022-08-29T07:32:07.474Z,101566.75
2022-08-29T07:34:56.301Z,101560.66
2022-08-29T07:37:47.728Z,101548.91
2022-08-29T07:40:37.593Z,101557.72
2022-08-29T07:43:27.817Z,101550.38
2022-08-29T07:46:17.027Z,101556.28
2022-08-29T07:49:05.101Z,101551.03
2022-08-29T07:51:54.218Z,101552.28
2022-08-29T07:54:41.469Z,101554.81
2022-08-29T07:57:28.740Z,101552.94
2022-08-29T08:00:16.200Z,101545.56
2022-08-29T08:03:03.603Z,101554.19
2022-08-29T08:05:50.933Z,101552.28
2022-08-29T08:08:39.510Z,101548.09
2022-08-29T08:11:27.490Z,101547.25
2022-08-29T08:14:14.807Z,101551.44
2022-08-29T08:17:02.935Z,101557.56
2022-08-29T08:19:50.189Z,101559.44
2022-08-29T08:22:37.675Z,101547.44
2022-08-29T08:25:26.079Z,101552.47
2022-08-29T08:28:14.343Z,101559.88
2022-08-29T08:31:06.289Z,101560.25
2022-08-29T08:33:54.313Z,101548.72
2022-08-29T08:36:44.669Z,101547.84
2022-08-29T08:39:31.989Z,101539.00
2022-08-29T08:42:32.348Z,101551.38
2022-08-29T08:45:26.783Z,101548.22
2022-08-29T08:48:23.299Z,101556.88
2022-08-29T08:51:19.971Z,101545.50
2022-08-29T08:54:14.784Z,101549.25
2022-08-29T08:57:08.645Z,101560.00
2022-08-29T08:59:58.881Z,101561.06
2022-08-29T09:03:05.025Z,101557.44
2022-08-29T09:06:21.220Z,101558.63
2022-08-29T09:09:43.219Z,101550.41
2022-08-29T09:13:14.757Z,101553.94
2022-08-29T09:16:08.057Z,101555.63
2022-08-29T09:19:03.867Z,101554.56
2022-08-29T09:21:55.226Z,101554.09
2022-08-29T09:25:12.909Z,101552.19
2022-08-29T09:28:00.402Z,101550.75
2022-08-29T09:31:24.662Z,101554.09
2022-08-29T09:34:21.666Z,101551.72
2022-08-29T09:37:23.016Z,101548.31
2022-08-29T09:40:16.765Z,101547.28
2022-08-29T09:43:07.854Z,101557.56
2022-08-29T09:46:05.988Z,101546.78
2022-08-29T09:49:05.394Z,101553.06
2022-08-29T09:51:53.004Z,101548.00
2022-08-29T09:54:42.617Z,101553.47
2022-08-29T09:57:31.330Z,101540.81
2022-08-29T10:00:25.441Z,101540.16
2022-08-29T10:03:23.546Z,101541.91
2022-08-29T10:06:17.176Z,101542.69
2022-08-29T10:09:26.637Z,101540.97
2022-08-29T10:12:19.948Z,101532.72
2022-08-29T10:15:23.622Z,101537.06
2022-08-29T10:18:39.432Z,101530.28
2022-08-29T10:21:47.006Z,101531.63
2022-08-29T10:24:40.040Z,101531.56
2022-08-29T10:27:34.242Z,101522.66
2022-08-29T10:30:26.633Z,101516.72
2022-08-29T10:33:19.957Z,101521.31
2022-08-29T10:36:25.526Z,101529.25
2022-08-29T10:39:16.596Z,101520.28
2022-08-29T10:42:15.981Z,101529.28
2022-08-29T10:45:06.121Z,101519.34
2022-08-29T10:48:11.253Z,101513.03
2022-08-29T10:51:06.399Z,101516.78
2022-08-29T10:54:35.773Z,101505.03
2022-08-29T10:57:35.216Z,101500.59
2022-08-29T11:00:28.672Z,101503.34
2022-08-29T11:03:42.589Z,101494.03
2022-08-29T11:06:42.937Z,101493.59
2022-08-29T11:09:44.153Z,101487.66
2022-08-29T11:13:06.218Z,101492.50
2022-08-29T11:16:00.518Z,101481.84
2022-08-29T11:19:05.321Z,101479.38
2022-08-29T11:21:56.570Z,101483.34
2022-08-29T11:24:47.249Z,101484.00
2022-08-29T11:28:00.627Z,101483.53
2022-08-29T11:31:06.193Z,101474.22
2022-08-29T11:34:17.819Z,101474.38
2022-08-29T11:37:28.859Z,101477.34
2022-08-29T11:40:48.046Z,101474.28
2022-08-29T11:43:42.217Z,101474.66
2022-08-29T11:46:40.758Z,101472.56
2022-08-29T11:49:31.961Z,101471.38
2022-08-29T11:52:23.789Z,101463.88
2022-08-29T11:55:28.317Z,101454.09
2022-08-29T11:58:15.505Z,101455.91
2022-08-29T12:01:03.006Z,101456.75
2022-08-29T12:03:56.093Z,101453.88
2022-08-29T12:07:01.475Z,101449.97
2022-08-29T12:09:53.686Z,101443.50
2022-08-29T12:12:45.782Z,101439.78
2022-08-29T12:15:32.992Z,101443.34
2022-08-29T12:18:20.177Z,101441.81
2022-08-29T12:21:34.110Z,101430.56
2022-08-29T12:24:36.259Z,101430.16
2022-08-29T12:27:45.066Z,101432.34
2022-08-29T12:30:45.530Z,101427.19
2022-08-29T12:33:51.501Z,101422.88
2022-08-29T12:36:56.681Z,101421.81
2022-08-29T12:39:52.098Z,101417.59
2022-08-29T12:42:46.370Z,101413.44
2022-08-29T12:45:36.042Z,101405.88
2022-08-29T12:48:33.234Z,101406.50
2022-08-29T12:51:42.760Z,101395.34
2022-08-29T12:54:35.043Z,101404.78
2022-08-29T12:57:36.765Z,101398.09
2022-08-29T13:00:28.416Z,101399.63
2022-08-29T13:03:20.991Z,101394.31
2022-08-29T13:06:13.605Z,101387.97
2022-08-29T13:09:01.359Z,101389.59
2022-08-29T13:11:48.629Z,101390.81
2022-08-29T13:14:56.421Z,101385.97
2022-08-29T13:17:47.148Z,101384.28
2022-08-29T13:21:08.416Z,101377.72
2022-08-29T13:24:13.427Z,101376.81
2022-08-29T13:27:04.783Z,101375.41
2022-08-29T13:30:00.468Z,101382.34
2022-08-29T13:32:50.028Z,101374.44
2022-08-29T13:35:37.412Z,101369.41
2022-08-29T13:38:26.792Z,101378.38
2022-08-29T13:41:27.618Z,101364.28
2022-08-29T13:44:19.749Z,101366.56
2022-08-29T13:47:19.496Z,101361.78
2022-08-29T13:50:09.964Z,101356.75
2022-08-29T13:52:57.859Z,101354.38
2022-08-29T13:55:45.164Z,101362.38
2022-08-29T13:58:32.419Z,101347.38
2022-08-29T14:01:30.336Z,101351.00
2022-08-29T14:04:37.540Z,101338.97
2022-08-29T14:07:29.766Z,101335.00
2022-08-29T14:10:17.764Z,101343.47
2022-08-29T14:13:06.139Z,101340.31
2022-08-29T14:15:53.516Z,101339.50
2022-08-29T14:18:40.916Z,101344.22
2022-08-29T14:21:28.257Z,101344.50
2022-08-29T14:24:15.777Z,101318.78
2022-08-29T14:27:04.768Z,101341.16
2022-08-29T14:29:53.006Z,101336.81
2022-08-29T14:32:40.577Z,101336.28
2022-08-29T14:35:31.708Z,101334.44
2022-08-29T14:38:19.465Z,101332.63
2022-08-29T14:41:06.817Z,101332.19
2022-08-29T14:43:54.232Z,101321.75
2022-08-29T14:46:41.551Z,101328.34
2022-08-29T14:49:28.879Z,101326.59
2022-08-29T14:52:16.432Z,101327.50
2022-08-29T14:55:04.193Z,101328.97
2022-08-29T14:57:51.768Z,101325.88
2022-08-29T15:00:39.112Z,101326.00
2022-08-29T15:03:26.547Z,101315.69
2022-08-29T15:06:14.368Z,101305.16
2022-08-29T15:09:01.666Z,101314.06
2022-08-29T15:11:48.929Z,101305.81
2022-08-29T15:14:36.284Z,101312.16
2022-08-29T15:17:24.501Z,101308.72
2022-08-29T15:23:21.604Z,101308.19
2022-08-29T15:26:08.832Z,101305.59
2022-08-29T15:28:56.092Z,101290.38
2022-08-29T15:31:43.480Z,101292.25
2022-08-29T15:34:31.254Z,101290.00
2022-08-29T15:37:18.704Z,101288.06
2022-08-29T15:40:12.821Z,101285.81
2022-08-29T15:43:01.874Z,101279.16
2022-08-29T15:45:49.143Z,101284.16
2022-08-29T15:48:37.326Z,101283.91
2022-08-29T15:51:24.576Z,101297.19
2022-08-29T15:54:12.327Z,101288.13
2022-08-29T15:56:59.603Z,101287.38
2022-08-29T15:59:58.012Z,101289.41
2022-08-29T16:02:46.185Z,101288.19
2022-08-29T16:05:35.677Z,101282.47
2022-08-29T16:08:22.804Z,101289.97
2022-08-29T16:11:16.861Z,101276.66
2022-08-29T16:14:41.048Z,101272.44
2022-08-29T16:17:14.019Z,101265.84
2022-08-29T16:20:02.288Z,101275.03
2022-08-29T16:22:49.617Z,101274.13
2022-08-29T16:25:37.553Z,101272.72
2022-08-29T16:28:24.799Z,101265.16
2022-08-29T16:31:12.726Z,101269.16
2022-08-29T16:34:00.068Z,101269.69
2022-08-29T16:36:47.401Z,101270.53
2022-08-29T16:39:34.677Z,101277.56
2022-08-29T16:42:21.988Z,101271.78
2022-08-29T16:45:11.242Z,101268.69
2022-08-29T16:47:59.470Z,101272.47
2022-08-29T16:50:47.056Z,101272.28
2022-08-29T16:53:38.654Z,101269.28
2022-08-29T16:56:27.677Z,101267.19
2022-08-29T16:59:15.160Z,101267.41
2022-08-29T17:02:03.233Z,101270.69
2022-08-29T17:04:51.217Z,101263.25
2022-08-29T17:07:38.436Z,101268.13
2022-08-29T17:10:25.693Z,101267.19
2022-08-29T17:13:12.998Z,101256.41
2022-08-29T17:16:01.793Z,101268.47
2022-08-29T17:18:49.268Z,101265.09
2022-08-29T17:21:36.729Z,101262.84
2022-08-29T17:24:24.845Z,101262.53
2022-08-29T17:27:17.100Z,101265.47
2022-08-29T17:30:07.110Z,101264.81
2022-08-29T17:32:54.388Z,101257.81
2022-08-29T17:35:41.631Z,101255.84
2022-08-29T17:38:28.961Z,101261.84
2022-08-29T17:41:21.077Z,101258.50
2022-08-29T17:44:09.959Z,101256.19
2022-08-29T17:46:57.787Z,101259.94
2022-08-29T17:49:45.033Z,101259.50
2022-08-29T17:52:33.179Z,101256.34
2022-08-29T17:55:20.640Z,101255.47
2022-08-29T17:58:07.977Z,101264.50
2022-08-29T18:00:55.305Z,101266.09
2022-08-29T18:03:44.397Z,101235.44
2022-08-29T18:06:32.473Z,101259.56
2022-08-29T18:09:22.284Z,101260.31
2022-08-29T18:12:09.542Z,101254.72
2022-08-29T18:14:56.867Z,101254.63
2022-08-29T18:17:45.287Z,101258.16
2022-08-29T18:20:32.819Z,101266.31
2022-08-29T18:23:20.144Z,101269.31
2022-08-29T18:26:07.409Z,101266.47
2022-08-29T18:28:55.502Z,101269.13
2022-08-29T18:31:42.949Z,101261.59
2022-08-29T18:34:30.245Z,101255.13
2022-08-29T18:37:17.504Z,101261.97
2022-08-29T18:40:06.058Z,101263.53
2022-08-29T18:42:53.313Z,101250.75
2022-08-29T18:45:41.490Z,101265.00
2022-08-29T18:48:29.997Z,101265.16
2022-08-29T18:51:17.486Z,101265.03
2022-08-29T18:54:04.816Z,101265.44
2022-08-29T18:56:52.099Z,101263.66
2022-08-29T18:59:40.269Z,101263.53
2022-08-29T19:02:28.161Z,101266.78
2022-08-29T19:05:16.491Z,101266.91
2022-08-29T19:08:04.473Z,101264.31
2022-08-29T19:10:55.270Z,101260.59
2022-08-29T19:13:43.277Z,101262.78
2022-08-29T19:16:31.741Z,101266.69
2022-08-29T19:19:19.004Z,101268.50
2022-08-29T19:22:06.256Z,101273.03
2022-08-29T19:24:53.532Z,101274.00
2022-08-29T19:27:43.974Z,101266.69
2022-08-29T19:30:32.296Z,101280.59
2022-08-29T19:33:20.294Z,101279.97
2022-08-29T19:36:09.269Z,101284.63
2022-08-29T19:38:56.523Z,101290.25
2022-08-29T19:41:44.093Z,101282.84
2022-08-29T19:44:31.329Z,101286.66
2022-08-29T19:47:21.636Z,101279.72
2022-08-29T19:50:11.977Z,101254.13
2022-08-29T19:53:00.348Z,101287.03
2022-08-29T19:55:48.391Z,101283.91
2022-08-29T19:58:36.547Z,101279.72
2022-08-29T20:01:23.952Z,101268.34
2022-08-29T20:04:11.762Z,101271.00
2022-08-29T20:07:00.408Z,101273.59
2022-08-29T20:09:47.905Z,101273.25
2022-08-29T20:12:36.860Z,101274.94
2022-08-29T20:15:30.899Z,101277.31
2022-08-29T20:18:19.688Z,101277.91
2022-08-29T20:21:06.955Z,101285.09
2022-08-29T20:23:58.066Z,101285.69
2022-08-29T20:26:47.899Z,101285.22
2022-08-29T20:32:23.473Z,101288.34
2022-08-29T20:35:10.917Z,101287.47
2022-08-29T20:37:58.177Z,101284.13
2022-08-29T20:40:46.921Z,101290.22
2022-08-29T20:43:37.119Z,101291.31
2022-08-29T20:46:26.438Z,101290.22
2022-08-29T20:49:16.534Z,101292.97
2022-08-29T20:52:05.596Z,101292.38
2022-08-29T20:54:52.864Z,101289.28
2022-08-29T20:57:41.140Z,101289.28
2022-08-29T21:00:28.518Z,101292.84
2022-08-29T21:03:34.535Z,101290.09
2022-08-29T21:06:21.836Z,101286.75
2022-08-29T21:09:09.118Z,101292.72
2022-08-29T21:11:56.437Z,101294.03
2022-08-29T21:14:43.984Z,101302.53
2022-08-29T21:17:31.275Z,101302.53
2022-08-29T21:20:18.657Z,101303.00
2022-08-29T21:23:08.052Z,101298.44
2022-08-29T21:25:57.612Z,101301.19
2022-08-29T21:28:47.130Z,101293.78
2022-08-29T21:31:35.399Z,101295.69
2022-08-29T21:34:23.330Z,101279.88
2022-08-29T21:37:10.653Z,101277.78
2022-08-29T21:39:58.297Z,101288.75
2022-08-29T21:42:45.593Z,101287.91
2022-08-29T21:45:34.053Z,101285.59
2022-08-29T21:48:21.355Z,101290.75
2022-08-29T21:51:08.725Z,101290.97
2022-08-29T21:53:57.268Z,101290.75
2022-08-29T21:56:45.398Z,101294.69
2022-08-29T21:59:32.645Z,101293.84
2022-08-29T22:02:19.989Z,101298.75
2022-08-29T22:05:07.544Z,101294.69
2022-08-29T22:07:55.825Z,101312.94
2022-08-29T22:10:45.172Z,101307.44
2022-08-29T22:13:32.443Z,101310.78
2022-08-29T22:16:30.204Z,101308.28
2022-08-29T22:19:17.749Z,101299.06
2022-08-29T22:22:05.105Z,101299.53
2022-08-29T22:24:53.358Z,101310.28
2022-08-29T22:27:40.645Z,101312.22
2022-08-29T22:30:32.069Z,101313.25
2022-08-29T22:33:20.064Z,101315.19
2022-08-29T22:36:12.724Z,101314.22
2022-08-29T22:39:00.031Z,101315.50
2022-08-29T22:41:47.833Z,101317.28
2022-08-29T22:45:02.387Z,101320.88
2022-08-29T22:47:43.879Z,101294.28
2022-08-29T22:50:31.104Z,101320.34
2022-08-29T22:53:18.412Z,101328.81
2022-08-29T22:56:05.964Z,101325.38
2022-08-29T22:58:53.234Z,101326.59
2022-08-29T23:01:43.329Z,101331.00
2022-08-29T23:04:31.472Z,101325.50
2022-08-29T23:07:19.373Z,101326.34
2022-08-29T23:10:07.958Z,101309.72
2022-08-29T23:12:55.227Z,101315.00
2022-08-29T23:15:42.556Z,101317.72
2022-08-29T23:18:29.818Z,101319.28
2022-08-29T23:21:17.634Z,101313.66
2022-08-29T23:24:06.985Z,101311.84
2022-08-29T23:26:54.272Z,101309.84
2022-08-29T23:29:42.028Z,101315.44
2022-08-29T23:32:29.502Z,101313.84
2022-08-29T23:35:16.757Z,101314.75
2022-08-29T23:38:04.594Z,101314.19
2022-08-29T23:40:57.467Z,101315.34
2022-08-29T23:43:44.824Z,101309.72
2022-08-29T23:46:32.183Z,101299.06
2022-08-29T23:49:19.461Z,101301.41
2022-08-29T23:52:06.901Z,101292.19
2022-08-29T23:54:54.275Z,101297.91
2022-08-29T23:57:41.629Z,101306.34
